Time;durP1;ratioP1;P1;durP2;ratioP2;P2;SDS_P1;SDS_P2;PMS_P1;PMS_P2;Temp;Humidity;BMP_temperature;BMP_pressure;BME280_temperature;BME280_humidity;BME280_pressure;Samples;Min_cycle;Max_cycle;Signal;HPM_P1;HPM_P2
2023/08/24 00:02:25;;;;;;;4.60;4.30;;;31.90;66.80;;;;;;4850292;29;20508;-83
2023/08/24 00:04:53;;;;;;;4.70;4.40;;;31.90;66.80;;;;;;4844016;29;20481;-83
2023/08/24 00:07:21;;;;;;;4.90;4.60;;;31.90;66.80;;;;;;4853980;29;20956;-83
2023/08/24 00:09:53;;;;;;;4.37;4.07;;;31.90;66.80;;;;;;4862281;29;20448;-83
2023/08/24 00:12:21;;;;;;;4.50;4.30;;;31.90;66.80;;;;;;4861371;29;20517;-83
2023/08/24 00:14:51;;;;;;;5.00;4.70;;;31.90;66.80;;;;;;4861919;29;20554;-83
2023/08/24 00:17:19;;;;;;;3.87;3.67;;;31.90;66.80;;;;;;4862333;29;20444;-85
2023/08/24 00:19:47;;;;;;;5.30;5.00;;;31.90;66.80;;;;;;4876643;29;20829;-83
2023/08/24 00:22:15;;;;;;;4.80;4.50;;;31.80;66.80;;;;;;4856619;29;20508;-84
2023/08/24 00:24:43;;;;;;;4.90;4.60;;;31.90;66.80;;;;;;4849115;29;20488;-83
2023/08/24 00:27:13;;;;;;;4.20;3.90;;;31.80;66.80;;;;;;4861676;29;20447;-83
2023/08/24 00:29:41;;;;;;;5.07;4.67;;;31.80;66.80;;;;;;4856140;29;20581;-84
2023/08/24 00:32:11;;;;;;;4.80;4.50;;;31.80;66.90;;;;;;4842081;29;20884;-83
2023/08/24 00:34:39;;;;;;;4.03;3.83;;;31.80;66.90;;;;;;4857615;29;20467;-83
2023/08/24 00:37:07;;;;;;;4.43;4.13;;;31.80;66.90;;;;;;4856957;29;20502;-83
2023/08/24 00:39:36;;;;;;;5.30;5.00;;;31.80;66.90;;;;;;4861038;29;20463;-83
2023/08/24 00:42:06;;;;;;;5.37;5.00;;;31.80;66.90;;;;;;4854127;29;21031;-83
2023/08/24 00:44:34;;;;;;;4.80;4.50;;;31.80;66.90;;;;;;4842440;29;20483;-84
2023/08/24 00:47:02;;;;;;;4.83;4.53;;;31.80;66.90;;;;;;4843411;29;20440;-83
2023/08/24 00:49:31;;;;;;;5.50;5.10;;;31.80;66.90;;;;;;4860427;29;20460;-85
2023/08/24 00:52:00;;;;;;;4.90;4.60;;;31.80;67.00;;;;;;4855408;29;20475;-84
2023/08/24 00:54:28;;;;;;;4.20;4.00;;;31.80;66.90;;;;;;4859027;29;20561;-83
2023/08/24 00:56:56;;;;;;;5.17;4.87;;;31.80;67.00;;;;;;4859093;29;20448;-84
2023/08/24 00:59:24;;;;;;;5.30;5.00;;;31.80;67.00;;;;;;4857847;29;20520;-85
2023/08/24 01:01:54;;;;;;;4.67;4.37;;;31.70;67.10;;;;;;4860909;29;20452;-84
2023/08/24 01:04:22;;;;;;;4.23;4.03;;;31.80;67.10;;;;;;4861065;29;20599;-83
2023/08/24 01:06:53;;;;;;;4.73;4.43;;;31.70;67.10;;;;;;4861287;29;20443;-83
2023/08/24 01:09:22;;;;;;;5.13;4.77;;;31.70;67.10;;;;;;4861152;29;20473;-84
2023/08/24 01:11:59;;;;;;;5.30;5.00;;;31.70;67.10;;;;;;4860573;29;20833;-85
2023/08/24 01:14:40;;;;;;;5.13;4.83;;;31.70;67.10;;;;;;4874350;29;20890;-83
2023/08/24 01:17:13;;;;;;;5.30;4.90;;;31.70;67.10;;;;;;4859979;29;20456;-83
2023/08/24 01:19:44;;;;;;;5.40;5.07;;;31.70;67.10;;;;;;4856597;29;20463;-83
2023/08/24 01:22:33;;;;;;;4.70;4.40;;;31.70;67.10;;;;;;4850121;29;20496;-83
2023/08/24 01:25:12;;;;;;;5.40;5.00;;;31.70;67.20;;;;;;4853372;29;21128;-83
2023/08/24 01:27:43;;;;;;;5.23;4.93;;;31.70;67.20;;;;;;4842861;29;20494;-84
2023/08/24 01:30:12;;;;;;;5.00;4.70;;;31.70;67.20;;;;;;4857345;29;21008;-83
2023/08/24 01:32:40;;;;;;;4.80;4.50;;;31.70;67.20;;;;;;4858970;29;20478;-83
2023/08/24 01:35:10;;;;;;;5.00;4.70;;;31.70;67.20;;;;;;4860942;29;20458;-84
2023/08/24 01:37:38;;;;;;;5.03;4.63;;;31.60;67.20;;;;;;4874519;29;21038;-83
2023/08/24 01:40:12;;;;;;;5.47;5.17;;;31.60;67.20;;;;;;4874777;29;20467;-83
2023/08/24 01:42:50;;;;;;;4.80;4.50;;;31.60;67.20;;;;;;4858961;29;20472;-84
2023/08/24 01:45:19;;;;;;;4.37;4.17;;;31.60;67.20;;;;;;4859187;29;20891;-83
2023/08/24 01:47:49;;;;;;;4.70;4.40;;;31.60;67.20;;;;;;4852303;29;20475;-84
2023/08/24 01:50:18;;;;;;;4.87;4.60;;;31.60;67.20;;;;;;4845983;29;20472;-83
2023/08/24 01:52:47;;;;;;;6.10;5.70;;;31.60;67.20;;;;;;4844938;29;20479;-83
2023/08/24 01:55:16;;;;;;;4.57;4.30;;;31.60;67.20;;;;;;4841964;29;20465;-85
2023/08/24 01:57:45;;;;;;;5.30;5.00;;;31.60;67.20;;;;;;4841874;29;20459;-83
2023/08/24 02:00:14;;;;;;;5.30;5.00;;;31.60;67.20;;;;;;4857459;29;20470;-83
2023/08/24 02:02:43;;;;;;;5.73;5.33;;;31.60;67.20;;;;;;4855494;29;20470;-84
2023/08/24 02:05:11;;;;;;;5.33;5.03;;;31.60;67.20;;;;;;4850156;29;20479;-83
2023/08/24 02:07:40;;;;;;;5.00;4.63;;;31.60;67.20;;;;;;4840766;29;20499;-83
2023/08/24 02:10:09;;;;;;;4.97;4.67;;;31.60;67.20;;;;;;4849756;29;20818;-83
2023/08/24 02:12:37;;;;;;;5.87;5.47;;;31.60;67.20;;;;;;4840910;29;20825;-83
2023/08/24 02:15:07;;;;;;;5.80;5.30;;;31.60;67.20;;;;;;4856347;29;20528;-85
2023/08/24 02:17:38;;;;;;;5.30;5.00;;;31.50;67.20;;;;;;4843828;29;20900;-83
2023/08/24 02:20:09;;;;;;;4.57;4.37;;;31.50;67.30;;;;;;4858379;29;21029;-84
2023/08/24 02:22:37;;;;;;;4.87;4.57;;;31.50;67.30;;;;;;4845777;29;20460;-83
2023/08/24 02:25:06;;;;;;;4.47;4.17;;;31.50;67.40;;;;;;4849662;29;20497;-84
2023/08/24 02:27:38;;;;;;;5.33;4.93;;;31.50;67.40;;;;;;4873375;29;20471;-84
2023/08/24 02:30:08;;;;;;;5.43;5.13;;;31.50;67.40;;;;;;4859458;29;20495;-83
2023/08/24 02:32:37;;;;;;;5.00;4.70;;;31.50;67.40;;;;;;4874221;29;20463;-83
2023/08/24 02:35:06;;;;;;;6.07;5.67;;;31.50;67.40;;;;;;4859717;29;20517;-84
2023/08/24 02:37:34;;;;;;;4.83;4.53;;;31.50;67.40;;;;;;4859425;29;20451;-84
2023/08/24 02:40:03;;;;;;;5.07;4.77;;;31.40;67.40;;;;;;4858794;29;20528;-84
2023/08/24 02:42:32;;;;;;;5.00;4.70;;;31.50;67.40;;;;;;4857584;29;20466;-84
2023/08/24 02:45:00;;;;;;;5.20;4.90;;;31.40;67.40;;;;;;4846790;29;20484;-84
2023/08/24 02:47:30;;;;;;;5.53;5.20;;;31.40;67.40;;;;;;4846848;29;21463;-83
2023/08/24 02:49:59;;;;;;;5.63;5.33;;;31.40;67.40;;;;;;4859665;29;20469;-83
2023/08/24 02:52:27;;;;;;;5.83;5.43;;;31.40;67.40;;;;;;4840515;29;20450;-83
2023/08/24 02:54:55;;;;;;;5.20;4.90;;;31.40;67.50;;;;;;4840434;29;20468;-83
2023/08/24 02:57:23;;;;;;;5.33;5.03;;;31.40;67.50;;;;;;4840153;29;20459;-83
2023/08/24 02:59:52;;;;;;;5.53;5.10;;;31.40;67.50;;;;;;4856810;29;20475;-83
2023/08/24 03:02:20;;;;;;;5.17;4.87;;;31.40;67.50;;;;;;4858112;29;20465;-83
2023/08/24 03:04:50;;;;;;;5.10;4.80;;;31.40;67.50;;;;;;4857969;29;21090;-83
2023/08/24 03:07:18;;;;;;;5.63;5.23;;;31.40;67.50;;;;;;4858996;29;21008;-83
2023/08/24 03:09:47;;;;;;;4.63;4.40;;;31.40;67.50;;;;;;4871733;29;20483;-83
2023/08/24 03:12:16;;;;;;;4.80;4.50;;;31.40;67.50;;;;;;4849121;29;20832;-84
2023/08/24 03:14:44;;;;;;;5.03;4.73;;;31.40;67.50;;;;;;4857036;29;20481;-83
2023/08/24 03:17:12;;;;;;;5.17;4.87;;;31.40;67.50;;;;;;4851252;29;20969;-84
2023/08/24 03:19:40;;;;;;;5.03;4.73;;;31.40;67.50;;;;;;4858100;29;20522;-84
2023/08/24 03:22:10;;;;;;;5.53;5.23;;;31.30;67.50;;;;;;4853910;29;20825;-83
2023/08/24 03:24:38;;;;;;;5.00;4.70;;;31.30;67.50;;;;;;4845349;29;20954;-83
2023/08/24 03:27:06;;;;;;;5.57;5.17;;;31.30;67.50;;;;;;4864624;29;20462;-84
2023/08/24 03:29:35;;;;;;;6.00;5.60;;;31.30;67.60;;;;;;4864560;29;21640;-84
2023/08/24 03:32:03;;;;;;;5.47;5.10;;;31.30;67.60;;;;;;4865210;29;20459;-83
2023/08/24 03:34:32;;;;;;;5.07;4.77;;;31.30;67.50;;;;;;4864877;29;20457;-84
2023/08/24 03:37:02;;;;;;;5.63;5.33;;;31.30;67.60;;;;;;4864047;29;20458;-83
2023/08/24 03:39:32;;;;;;;5.27;4.97;;;31.30;67.60;;;;;;4856303;29;20865;-84
2023/08/24 03:42:00;;;;;;;4.90;4.60;;;31.30;67.60;;;;;;4846376;29;20466;-83
2023/08/24 03:44:28;;;;;;;5.10;4.80;;;31.30;67.60;;;;;;4855943;29;20573;-84
2023/08/24 03:46:56;;;;;;;5.90;5.50;;;31.30;67.60;;;;;;4847091;29;20542;-83
2023/08/24 03:49:25;;;;;;;5.07;4.77;;;31.30;67.60;;;;;;4863300;29;20470;-83
2023/08/24 03:51:54;;;;;;;5.07;4.80;;;31.30;67.60;;;;;;4865397;29;20439;-83
2023/08/24 03:54:23;;;;;;;5.50;5.10;;;31.30;67.60;;;;;;4879029;29;20480;-83
2023/08/24 03:56:53;;;;;;;6.07;5.70;;;31.30;67.60;;;;;;4864292;29;20551;-83
2023/08/24 03:59:21;;;;;;;5.33;5.03;;;31.20;67.60;;;;;;4872790;29;20552;-83
2023/08/24 04:01:49;;;;;;;5.60;5.30;;;31.30;67.60;;;;;;4863663;29;20497;-83
2023/08/24 04:04:18;;;;;;;6.00;5.60;;;31.20;67.60;;;;;;4863746;29;20463;-83
2023/08/24 04:06:46;;;;;;;5.57;5.27;;;31.20;67.70;;;;;;4857503;29;20491;-83
2023/08/24 04:09:15;;;;;;;5.77;5.27;;;31.20;67.60;;;;;;4859914;29;20469;-83
2023/08/24 04:11:43;;;;;;;5.03;4.73;;;31.20;67.70;;;;;;4863959;29;20467;-83
2023/08/24 04:14:13;;;;;;;6.70;6.20;;;31.20;67.70;;;;;;4858767;29;20537;-83
2023/08/24 04:16:42;;;;;;;5.30;5.00;;;31.20;67.70;;;;;;4864768;29;20525;-84
2023/08/24 04:19:10;;;;;;;5.70;5.40;;;31.20;67.70;;;;;;4865088;29;20490;-84
2023/08/24 04:21:38;;;;;;;5.53;5.23;;;31.20;67.70;;;;;;4864427;29;20459;-83
2023/08/24 04:24:07;;;;;;;6.00;5.60;;;31.20;67.70;;;;;;4845820;29;21015;-84
2023/08/24 04:26:36;;;;;;;4.83;4.53;;;31.20;67.70;;;;;;4846290;29;20488;-83
2023/08/24 04:29:04;;;;;;;5.53;5.23;;;31.20;67.70;;;;;;4855578;29;20446;-84
2023/08/24 04:31:34;;;;;;;5.23;4.93;;;31.20;67.70;;;;;;4863370;29;20565;-84
2023/08/24 04:34:03;;;;;;;4.80;4.50;;;31.20;67.70;;;;;;4845451;29;20460;-84
2023/08/24 04:36:31;;;;;;;5.77;5.37;;;31.20;67.70;;;;;;4848376;29;20474;-83
2023/08/24 04:39:00;;;;;;;4.97;4.67;;;31.20;67.70;;;;;;4846082;29;20485;-82
2023/08/24 04:41:28;;;;;;;5.50;5.20;;;31.10;67.70;;;;;;4847438;29;20467;-83
2023/08/24 04:43:56;;;;;;;5.50;5.20;;;31.10;67.70;;;;;;4842559;29;20479;-84
2023/08/24 04:46:26;;;;;;;6.20;5.80;;;31.10;67.70;;;;;;4843120;29;20889;-83
2023/08/24 04:48:56;;;;;;;6.10;5.70;;;31.10;67.70;;;;;;4847799;29;20540;-83
2023/08/24 04:51:24;;;;;;;5.37;5.07;;;31.10;67.70;;;;;;4851859;29;20802;-83
2023/08/24 04:53:52;;;;;;;6.50;6.10;;;31.10;67.70;;;;;;4846442;29;20969;-83
2023/08/24 04:56:21;;;;;;;6.47;6.07;;;31.10;67.70;;;;;;4851170;29;20532;-83
2023/08/24 04:58:56;;;;;;;5.80;5.50;;;31.10;67.70;;;;;;4856929;29;20454;-83
2023/08/24 05:01:25;;;;;;;6.03;5.63;;;31.10;67.80;;;;;;4861068;29;20493;-83
2023/08/24 05:03:54;;;;;;;6.40;5.93;;;31.10;67.70;;;;;;4848594;29;20992;-83
2023/08/24 05:06:23;;;;;;;6.00;5.60;;;31.10;67.70;;;;;;4842762;29;20579;-84
2023/08/24 05:08:51;;;;;;;5.30;5.00;;;31.10;67.70;;;;;;4849767;29;20490;-84
2023/08/24 05:11:20;;;;;;;5.63;5.33;;;31.10;67.70;;;;;;4861519;29;20484;-83
2023/08/24 05:13:48;;;;;;;5.77;5.47;;;31.10;67.80;;;;;;4860400;29;20454;-83
2023/08/24 05:16:17;;;;;;;5.63;5.27;;;31.10;67.70;;;;;;4861238;29;20534;-85
2023/08/24 05:18:46;;;;;;;6.07;5.67;;;31.10;67.70;;;;;;4855279;29;20475;-83
2023/08/24 05:21:15;;;;;;;5.53;5.23;;;31.10;67.70;;;;;;4846956;29;21067;-83
2023/08/24 05:23:44;;;;;;;5.40;5.10;;;31.10;67.70;;;;;;4853956;29;21040;-84
2023/08/24 05:26:12;;;;;;;5.90;5.50;;;31.10;67.70;;;;;;4859702;29;20488;-83
2023/08/24 05:28:40;;;;;;;5.83;5.50;;;31.10;67.70;;;;;;4859906;29;20450;-84
2023/08/24 05:31:08;;;;;;;5.70;5.37;;;31.10;67.70;;;;;;4855278;29;20503;-83
2023/08/24 05:33:37;;;;;;;5.60;5.20;;;31.10;67.70;;;;;;4860879;29;20454;-83
2023/08/24 05:36:05;;;;;;;5.30;5.00;;;31.10;67.70;;;;;;4858523;29;20451;-84
2023/08/24 05:38:35;;;;;;;5.70;5.40;;;31.10;67.70;;;;;;4850139;29;20493;-83
2023/08/24 05:41:05;;;;;;;6.10;5.60;;;31.10;67.70;;;;;;4861052;29;20499;-83
2023/08/24 05:43:33;;;;;;;5.70;5.30;;;31.10;67.70;;;;;;4859573;29;20958;-84
2023/08/24 05:46:02;;;;;;;5.60;5.20;;;31.10;67.70;;;;;;4860922;29;20438;-84
2023/08/24 05:48:31;;;;;;;5.90;5.50;;;31.10;67.60;;;;;;4859929;29;20558;-83
2023/08/24 05:50:59;;;;;;;5.27;4.97;;;31.10;67.60;;;;;;4860654;29;20448;-83
2023/08/24 05:53:27;;;;;;;5.47;5.17;;;31.10;67.60;;;;;;4860113;29;20449;-85
2023/08/24 05:56:00;;;;;;;6.17;5.77;;;31.10;67.60;;;;;;4860444;29;20810;-83
2023/08/24 05:58:28;;;;;;;5.30;4.90;;;31.10;67.60;;;;;;4856061;29;20530;-84
2023/08/24 06:00:59;;;;;;;5.77;5.47;;;31.10;67.50;;;;;;4850552;29;20462;-83
2023/08/24 06:03:28;;;;;;;5.70;5.40;;;31.10;67.50;;;;;;4840721;29;20485;-84
2023/08/24 06:06:03;;;;;;;6.20;5.90;;;31.10;67.50;;;;;;4844888;29;20516;-83
2023/08/24 06:08:31;;;;;;;5.73;5.40;;;31.10;67.50;;;;;;4845493;29;20690;-84
2023/08/24 06:11:01;;;;;;;5.87;5.57;;;31.10;67.40;;;;;;4860757;29;20478;-83
2023/08/24 06:13:29;;;;;;;5.90;5.60;;;31.10;67.50;;;;;;4859339;29;20972;-84
2023/08/24 06:15:57;;;;;;;5.60;5.23;;;31.10;67.50;;;;;;4859871;29;20439;-83
2023/08/24 06:18:25;;;;;;;5.57;5.27;;;31.10;67.50;;;;;;4859895;29;20455;-83
2023/08/24 06:20:54;;;;;;;5.60;5.30;;;31.10;67.50;;;;;;4858703;29;20865;-83
2023/08/24 06:23:23;;;;;;;5.70;5.37;;;31.10;67.50;;;;;;4846469;29;20463;-83
2023/08/24 06:25:51;;;;;;;4.90;4.60;;;31.10;67.50;;;;;;4841162;29;20519;-83
2023/08/24 06:28:20;;;;;;;5.87;5.57;;;31.10;67.50;;;;;;4849377;29;20482;-83
2023/08/24 06:30:48;;;;;;;5.50;5.20;;;31.10;67.50;;;;;;4860234;29;20496;-83
2023/08/24 06:33:18;;;;;;;5.60;5.30;;;31.10;67.50;;;;;;4853852;29;20510;-83
2023/08/24 06:35:46;;;;;;;5.57;5.27;;;31.10;67.50;;;;;;4859817;29;20500;-83
2023/08/24 06:38:14;;;;;;;6.23;5.83;;;31.10;67.40;;;;;;4858659;29;20458;-82
2023/08/24 06:40:43;;;;;;;5.87;5.57;;;31.10;67.40;;;;;;4859370;29;20451;-83
2023/08/24 06:43:11;;;;;;;6.00;5.70;;;31.10;67.40;;;;;;4858757;29;20450;-84
2023/08/24 06:45:41;;;;;;;6.00;5.60;;;31.20;67.40;;;;;;4859954;29;20450;-83
2023/08/24 06:48:09;;;;;;;5.40;5.10;;;31.10;67.40;;;;;;4859070;29;20483;-84
2023/08/24 06:50:37;;;;;;;5.03;4.73;;;31.20;67.30;;;;;;4859819;29;20440;-83
2023/08/24 06:53:06;;;;;;;6.20;5.80;;;31.20;67.30;;;;;;4858547;29;21219;-83
2023/08/24 06:55:34;;;;;;;6.30;5.90;;;31.20;67.30;;;;;;4855808;29;20450;-84
2023/08/24 06:58:04;;;;;;;5.23;4.93;;;31.20;67.30;;;;;;4846246;29;20468;-84
2023/08/24 07:00:35;;;;;;;5.90;5.50;;;31.20;67.30;;;;;;4858491;29;20439;-83
2023/08/24 07:03:05;;;;;;;5.40;5.10;;;31.20;67.40;;;;;;4848834;29;20478;-83
2023/08/24 07:05:34;;;;;;;5.60;5.30;;;31.20;67.30;;;;;;4841326;29;20455;-83
2023/08/24 07:08:05;;;;;;;6.20;5.80;;;31.20;67.30;;;;;;4840191;29;20509;-84
2023/08/24 07:10:33;;;;;;;6.00;5.60;;;31.20;67.30;;;;;;4859212;29;20436;-82
2023/08/24 07:13:02;;;;;;;6.10;5.73;;;31.20;67.20;;;;;;4858275;29;20451;-83
2023/08/24 07:15:30;;;;;;;6.07;5.77;;;31.30;67.20;;;;;;4857959;29;20474;-83
2023/08/24 07:17:58;;;;;;;5.07;4.77;;;31.20;67.20;;;;;;4858720;29;20973;-83
2023/08/24 07:20:28;;;;;;;5.20;4.90;;;31.30;67.20;;;;;;4858815;29;20440;-83
2023/08/24 07:22:57;;;;;;;6.30;5.80;;;31.30;67.10;;;;;;4848761;29;20945;-83
2023/08/24 07:25:26;;;;;;;5.70;5.33;;;31.30;67.10;;;;;;4841409;29;20886;-83
2023/08/24 07:27:57;;;;;;;5.43;5.03;;;31.30;67.10;;;;;;4838503;29;20564;-83
2023/08/24 07:30:26;;;;;;;5.77;5.37;;;31.30;67.00;;;;;;4856264;29;20498;-83
2023/08/24 07:33:02;;;;;;;6.13;5.73;;;31.30;67.10;;;;;;4857069;29;20549;-84
2023/08/24 07:35:33;;;;;;;6.13;5.73;;;31.30;67.00;;;;;;4858765;29;20454;-83
2023/08/24 07:38:02;;;;;;;5.40;5.10;;;31.30;67.10;;;;;;4858462;29;20436;-84
2023/08/24 07:40:30;;;;;;;5.30;5.00;;;31.30;67.10;;;;;;4858930;29;20454;-84
2023/08/24 07:42:59;;;;;;;5.90;5.50;;;31.30;67.00;;;;;;4858400;29;20445;-84
2023/08/24 07:45:27;;;;;;;5.80;5.50;;;31.30;67.00;;;;;;4858975;29;20459;-83
2023/08/24 07:47:56;;;;;;;6.07;5.67;;;31.30;67.10;;;;;;4858868;29;20559;-84
2023/08/24 07:50:24;;;;;;;6.03;5.70;;;31.30;67.10;;;;;;4859142;29;20535;-83
2023/08/24 07:52:53;;;;;;;5.70;5.30;;;31.30;67.10;;;;;;4858896;29;20472;-83
2023/08/24 07:55:24;;;;;;;6.00;5.70;;;31.30;67.10;;;;;;4858135;29;20472;-83
2023/08/24 07:57:53;;;;;;;6.43;6.03;;;31.30;67.10;;;;;;4840055;29;20444;-83
2023/08/24 08:00:21;;;;;;;6.13;5.73;;;31.30;67.10;;;;;;4850921;29;20466;-83
2023/08/24 08:02:51;;;;;;;5.67;5.30;;;31.30;67.10;;;;;;4858644;29;20448;-83
2023/08/24 08:05:20;;;;;;;5.50;5.10;;;31.30;67.10;;;;;;4859432;29;20562;-84
2023/08/24 08:07:48;;;;;;;5.50;5.20;;;31.40;67.10;;;;;;4858327;29;20479;-83
2023/08/24 08:10:20;;;;;;;5.70;5.40;;;31.40;67.10;;;;;;4858440;29;20439;-84
2023/08/24 08:12:48;;;;;;;5.50;5.20;;;31.40;67.10;;;;;;4861761;29;20443;-83
2023/08/24 08:15:16;;;;;;;5.50;5.20;;;31.40;67.10;;;;;;4862172;29;20488;-83
2023/08/24 08:17:45;;;;;;;6.00;5.70;;;31.40;67.10;;;;;;4862241;29;20488;-83
2023/08/24 08:20:15;;;;;;;5.73;5.43;;;31.40;67.00;;;;;;4862008;29;20455;-83
2023/08/24 08:22:44;;;;;;;6.03;5.73;;;31.40;67.00;;;;;;4853247;29;20478;-83
2023/08/24 08:25:12;;;;;;;5.63;5.33;;;31.40;66.90;;;;;;4849609;29;20467;-83
2023/08/24 08:27:42;;;;;;;6.00;5.60;;;31.40;66.90;;;;;;4842523;29;20440;-83
2023/08/24 08:30:11;;;;;;;6.13;5.70;;;31.40;66.90;;;;;;4857262;29;20556;-84
2023/08/24 08:32:40;;;;;;;5.73;5.33;;;31.40;66.90;;;;;;4860998;29;20451;-83
2023/08/24 08:35:09;;;;;;;6.30;5.90;;;31.40;66.90;;;;;;4861688;29;20444;-83
2023/08/24 08:37:38;;;;;;;5.90;5.50;;;31.40;66.90;;;;;;4861578;29;20482;-83
2023/08/24 08:40:10;;;;;;;5.97;5.47;;;31.40;66.90;;;;;;4861731;29;20456;-84
2023/08/24 08:42:38;;;;;;;5.63;5.33;;;31.40;66.90;;;;;;4860921;29;20531;-83
2023/08/24 08:45:10;;;;;;;6.20;5.80;;;31.40;66.90;;;;;;4861626;29;20554;-84
2023/08/24 08:47:41;;;;;;;5.67;5.27;;;31.40;67.00;;;;;;4861639;29;20452;-84
2023/08/24 08:50:10;;;;;;;5.37;5.00;;;31.40;67.00;;;;;;4860152;29;20547;-84
2023/08/24 08:52:38;;;;;;;5.03;4.73;;;31.40;67.00;;;;;;4854515;29;20801;-83
2023/08/24 08:55:09;;;;;;;6.10;5.80;;;31.40;67.00;;;;;;4846499;29;20968;-83
2023/08/24 08:57:39;;;;;;;5.70;5.30;;;31.40;67.00;;;;;;4848029;29;20469;-84
2023/08/24 09:00:12;;;;;;;5.67;5.37;;;31.40;67.00;;;;;;4866246;29;20855;-84
2023/08/24 09:02:44;;;;;;;5.80;5.50;;;31.40;67.00;;;;;;4842544;29;20469;-83
2023/08/24 09:05:13;;;;;;;5.83;5.53;;;31.40;67.00;;;;;;4842650;29;20440;-83
2023/08/24 09:07:42;;;;;;;5.90;5.60;;;31.40;67.00;;;;;;4842962;29;20449;-83
2023/08/24 09:10:10;;;;;;;5.67;5.37;;;31.40;67.00;;;;;;4856890;29;20571;-84
2023/08/24 09:12:38;;;;;;;5.53;5.20;;;31.40;67.00;;;;;;4860330;29;20979;-83
2023/08/24 09:15:09;;;;;;;5.73;5.43;;;31.40;67.00;;;;;;4861237;29;20444;-83
2023/08/24 09:17:43;;;;;;;5.33;5.03;;;31.40;67.00;;;;;;4860852;29;20432;-83
2023/08/24 09:20:15;;;;;;;5.50;5.20;;;31.40;67.00;;;;;;4858096;29;20456;-83
2023/08/24 09:22:44;;;;;;;5.83;5.43;;;31.40;67.00;;;;;;4857788;29;20980;-83
2023/08/24 09:25:12;;;;;;;5.43;5.03;;;31.40;67.00;;;;;;4859417;29;20512;-83
2023/08/24 09:27:41;;;;;;;5.50;5.20;;;31.40;67.00;;;;;;4847351;29;20524;-84
2023/08/24 09:30:13;;;;;;;5.83;5.53;;;31.40;67.00;;;;;;4850944;29;20519;-83
2023/08/24 09:32:41;;;;;;;6.30;5.90;;;31.40;67.00;;;;;;4845195;29;21041;-83
2023/08/24 09:35:11;;;;;;;5.67;5.27;;;31.40;67.00;;;;;;4842518;29;20476;-83
2023/08/24 09:37:40;;;;;;;6.00;5.60;;;31.30;67.10;;;;;;4842445;29;20452;-83
2023/08/24 09:40:09;;;;;;;5.70;5.33;;;31.30;67.10;;;;;;4855623;29;20444;-83
2023/08/24 09:42:42;;;;;;;6.20;5.80;;;31.30;67.10;;;;;;4859921;29;20909;-85
2023/08/24 09:45:15;;;;;;;5.40;5.10;;;31.30;67.10;;;;;;4860721;29;20440;-84
2023/08/24 09:47:47;;;;;;;5.70;5.40;;;31.30;67.10;;;;;;4860046;29;20807;-84
2023/08/24 09:50:16;;;;;;;5.50;5.20;;;31.30;67.10;;;;;;4860532;29;20891;-83
2023/08/24 09:52:45;;;;;;;6.27;5.83;;;31.30;67.10;;;;;;4858813;29;20440;-83
2023/08/24 09:55:21;;;;;;;5.73;5.43;;;31.30;67.10;;;;;;4844221;29;20493;-83
2023/08/24 09:57:53;;;;;;;5.30;4.90;;;31.30;67.10;;;;;;4841486;29;20444;-83
2023/08/24 10:00:24;;;;;;;5.87;5.57;;;31.30;67.10;;;;;;4851075;29;20525;-83
2023/08/24 10:02:53;;;;;;;5.73;5.43;;;31.30;67.10;;;;;;4840671;29;20997;-83
2023/08/24 10:05:25;;;;;;;5.67;5.37;;;31.30;67.10;;;;;;4860038;29;20551;-83
2023/08/24 10:08:10;;;;;;;5.83;5.43;;;31.30;67.20;;;;;;4850006;29;20996;-83
2023/08/24 10:10:40;;;;;;;5.60;5.30;;;31.30;67.20;;;;;;4844746;29;20481;-83
2023/08/24 10:13:14;;;;;;;5.93;5.63;;;31.30;67.20;;;;;;4844430;29;20522;-83
2023/08/24 10:15:46;;;;;;;5.30;5.00;;;31.30;67.20;;;;;;4859726;29;20801;-83
2023/08/24 10:18:16;;;;;;;5.53;5.23;;;31.30;67.20;;;;;;4859813;29;20500;-83
2023/08/24 10:20:45;;;;;;;6.03;5.67;;;31.30;67.20;;;;;;4859997;29;21029;-83
2023/08/24 10:23:15;;;;;;;5.57;5.27;;;31.30;67.20;;;;;;4850465;29;20520;-83
2023/08/24 10:25:46;;;;;;;6.20;5.80;;;31.30;67.20;;;;;;4841203;29;20490;-83
2023/08/24 10:28:16;;;;;;;5.53;5.23;;;31.30;67.20;;;;;;4844554;29;20540;-84
2023/08/24 10:30:46;;;;;;;5.20;4.90;;;31.30;67.20;;;;;;4859359;29;20496;-83
2023/08/24 10:33:16;;;;;;;5.43;5.13;;;31.30;67.20;;;;;;4859898;29;20431;-83
2023/08/24 10:35:46;;;;;;;5.97;5.67;;;31.30;67.20;;;;;;4858118;29;20448;-83
2023/08/24 10:38:25;;;;;;;6.27;5.87;;;31.30;67.20;;;;;;4851806;29;20976;-84
2023/08/24 10:40:54;;;;;;;5.70;5.33;;;31.30;67.30;;;;;;4857618;29;20499;-83
2023/08/24 10:43:23;;;;;;;5.77;5.37;;;31.30;67.20;;;;;;4853815;29;20472;-83
2023/08/24 10:46:00;;;;;;;5.07;4.77;;;31.30;67.20;;;;;;4859327;29;20460;-83
2023/08/24 10:48:30;;;;;;;6.20;5.80;;;31.30;67.30;;;;;;4859764;29;20467;-83
2023/08/24 10:51:23;;;;;;;5.60;5.30;;;31.30;67.30;;;;;;4859492;29;20544;-83
2023/08/24 10:53:54;;;;;;;6.37;6.00;;;31.30;67.40;;;;;;4857185;29;20507;-83
2023/08/24 10:56:25;;;;;;;5.30;5.00;;;31.30;67.40;;;;;;4858475;29;20802;-83
2023/08/24 10:59:13;;;;;;;5.77;5.47;;;31.20;67.40;;;;;;4856191;29;20454;-83
2023/08/24 11:01:43;;;;;;;5.43;5.13;;;31.30;67.40;;;;;;4859436;29;20444;-83
2023/08/24 11:04:12;;;;;;;5.53;5.23;;;31.20;67.50;;;;;;4859534;29;20443;-83
2023/08/24 11:06:57;;;;;;;5.60;5.30;;;31.20;67.50;;;;;;4853104;29;20536;-84
2023/08/24 11:09:27;;;;;;;5.37;5.07;;;31.20;67.50;;;;;;4851957;29;20479;-83
2023/08/24 11:11:59;;;;;;;5.60;5.20;;;31.20;67.50;;;;;;4856664;29;20783;-83
2023/08/24 11:14:29;;;;;;;5.40;5.10;;;31.20;67.50;;;;;;4856054;29;20515;-83
2023/08/24 11:17:02;;;;;;;5.47;5.17;;;31.30;67.50;;;;;;4859229;29;20448;-83
2023/08/24 11:19:31;;;;;;;5.80;5.50;;;31.30;67.40;;;;;;4859284;29;20995;-84
2023/08/24 11:22:00;;;;;;;5.23;4.93;;;31.30;67.40;;;;;;4859106;29;20463;-83
2023/08/24 11:24:28;;;;;;;5.30;5.00;;;31.40;67.30;;;;;;4858916;29;20432;-83
2023/08/24 11:27:00;;;;;;;6.07;5.77;;;31.50;67.10;;;;;;4859272;29;20444;-83
2023/08/24 11:29:28;;;;;;;5.47;5.17;;;31.60;66.90;;;;;;4858018;29;20479;-83
2023/08/24 11:32:00;;;;;;;4.93;4.73;;;31.70;66.70;;;;;;4858960;29;20444;-84
2023/08/24 11:34:28;;;;;;;5.60;5.30;;;31.70;66.60;;;;;;4859554;29;20526;-84
2023/08/24 11:36:56;;;;;;;5.93;5.60;;;31.90;66.20;;;;;;4848091;29;20553;-84
2023/08/24 11:39:25;;;;;;;5.80;5.50;;;32.00;65.90;;;;;;4844907;29;20433;-84
2023/08/24 11:42:04;;;;;;;5.33;5.03;;;32.20;65.60;;;;;;4843610;29;20517;-83
2023/08/24 11:44:47;;;;;;;5.23;4.93;;;32.40;65.10;;;;;;4839677;29;20429;-84
2023/08/24 11:47:17;;;;;;;5.43;5.13;;;32.50;64.80;;;;;;4843479;29;20925;-83
2023/08/24 11:49:45;;;;;;;4.93;4.63;;;32.50;64.70;;;;;;4853650;29;20482;-83
2023/08/24 11:52:15;;;;;;;5.60;5.30;;;32.50;64.60;;;;;;4862648;29;20929;-83
2023/08/24 11:54:45;;;;;;;5.60;5.30;;;32.50;64.70;;;;;;4862346;29;20428;-83
2023/08/24 11:57:13;;;;;;;5.27;4.97;;;32.60;64.60;;;;;;4862795;29;20444;-83
2023/08/24 11:59:42;;;;;;;5.37;5.07;;;32.60;64.50;;;;;;4861348;29;20455;-84
2023/08/24 12:02:12;;;;;;;5.20;4.90;;;32.70;64.40;;;;;;4862386;29;20548;-84
2023/08/24 12:04:42;;;;;;;5.30;5.00;;;32.70;64.40;;;;;;4857397;29;21139;-83
2023/08/24 12:07:12;;;;;;;6.03;5.73;;;32.80;64.20;;;;;;4847387;29;20467;-83
2023/08/24 12:09:40;;;;;;;5.47;5.17;;;32.80;64.10;;;;;;4850319;29;20451;-83
2023/08/24 12:12:14;;;;;;;4.83;4.53;;;32.90;64.00;;;;;;4846663;29;20501;-83
2023/08/24 12:14:42;;;;;;;5.00;4.70;;;32.90;63.90;;;;;;4843143;29;20437;-83
2023/08/24 12:17:10;;;;;;;5.23;4.93;;;33.00;63.80;;;;;;4843948;29;20457;-84
2023/08/24 12:19:44;;;;;;;5.10;4.80;;;33.00;63.60;;;;;;4851292;29;20440;-83
2023/08/24 12:22:15;;;;;;;5.10;4.80;;;33.10;63.50;;;;;;4861857;29;20452;-83
2023/08/24 12:24:47;;;;;;;5.93;5.53;;;33.10;63.40;;;;;;4862482;29;20514;-83
2023/08/24 12:27:23;;;;;;;5.00;4.70;;;33.20;63.40;;;;;;4861936;29;20444;-84
2023/08/24 12:29:51;;;;;;;5.50;5.20;;;33.20;63.30;;;;;;4860848;29;20498;-84
2023/08/24 12:32:25;;;;;;;5.20;4.90;;;33.20;63.20;;;;;;4861407;29;20448;-84
2023/08/24 12:34:55;;;;;;;5.37;5.07;;;33.20;63.30;;;;;;4849161;29;20467;-83
2023/08/24 12:37:23;;;;;;;4.53;4.27;;;33.20;63.30;;;;;;4843428;29;20437;-84
2023/08/24 12:39:51;;;;;;;4.73;4.43;;;33.20;63.30;;;;;;4852294;29;20510;-84
2023/08/24 12:42:20;;;;;;;4.90;4.60;;;33.20;63.20;;;;;;4859492;29;20441;-84
2023/08/24 12:44:48;;;;;;;5.30;5.00;;;33.30;63.20;;;;;;4849088;29;20468;-83
2023/08/24 12:47:16;;;;;;;4.57;4.37;;;33.30;63.20;;;;;;4843286;29;20961;-83
2023/08/24 12:49:44;;;;;;;5.07;4.77;;;33.20;63.20;;;;;;4851114;29;20448;-83
2023/08/24 12:52:14;;;;;;;5.33;5.03;;;33.10;63.40;;;;;;4861391;29;20524;-83
2023/08/24 12:54:42;;;;;;;4.80;4.60;;;33.10;63.50;;;;;;4861378;29;20834;-83
2023/08/24 12:57:10;;;;;;;5.33;5.03;;;33.10;63.60;;;;;;4859580;29;20583;-84
2023/08/24 12:59:38;;;;;;;4.90;4.60;;;33.00;63.80;;;;;;4860411;29;20460;-83
2023/08/24 13:02:06;;;;;;;5.07;4.77;;;33.00;63.90;;;;;;4858028;29;20484;-83